ADDS TAF Board INFO
 
 

IDs: Format: Expanded Condensed

KFLL - Ft Lauderdale-Hollyw, FL, US

Issued at 1502 UTC 22 Aug 2014
Time1453Z22/16Z22/17Z22/18Z22/19Z22/20Z22/21Z22/22Z22/23Z23/00Z23/01Z23/02Z23/03Z23/04Z
TypeOBSPRVLPRVLPRVLPRVLPRVLPRVLPRVLPRVLPRVLPRVLPRVLPRVLPRVL
Vis10>6>6>6>6>6>6>6>6>6>6>6>6>6
Cig----------------------------
CoverSCTSCTSCTSCTSCTSCTSCTSCTSCTSCTSCTSCTFEWFEW
FltCat--VFRVFRVFRVFRVFRVFRVFRVFRVFRVFRVFRVFRVFR
Wx----VCTSVCTSVCTSVCTS----------------
WDir110120110110110110100100100100100100VRBVRB
WSpd77888810101010101044
WGst----------------------------
R10/28
XWnd-2-3-3-3-3-3-2-2-2-2-2-2VRBVRB
HWnd768888101010101010VRBVRB
Raw TAF
KFLL 221502Z 2215/2312 12007KT P6SM SCT030 SCT250
  FM221700 11008KT P6SM VCTS SCT030CB SCT250
  FM222100 10010KT P6SM SCT040 SCT250
  FM230300 VRB04KT P6SM FEW025 FEW250


Raw METAR
KFLL 221453Z COR 11007KT 10SM SCT030 32/23 A3008 RMK AO2 SLP184 T03220233 53005

TAF Board Legend

Hazard Green Yellow Red Magenta
Visibility (sm) >5 >2.99 >0.99 <=0.99
Ceiling (100 ft) >30 >9.99 >4.99 <=4.99
Wind Speed (kt) <10 <20 <30 >=30
Wind Gust (kt) <10 <20 <30 >=30
Weather No Wx Reported Light precipitation Moderate precipitation Heavy precipitation
Flight Category VFR MVFR IFR LIFR

Page loaded:  15:41 UTC  |   08:41 AM Pacific  |   09:41 AM Mountain  |   10:41 AM Central  |   11:41 AM Eastern

 

ADVISORIES

FORECASTS

FORECASTS

OBSERVATIONS

USER TOOLS

ABOUT US